Time;durP1;ratioP1;P1;durP2;ratioP2;P2;SDS_P1;SDS_P2;PMS_P1;PMS_P2;Temp;Humidity;BMP_temperature;BMP_pressure;BME280_temperature;BME280_humidity;BME280_pressure;Samples;Min_cycle;Max_cycle;Signal;HPM_P1;HPM_P2
2023/06/19 08:03:47;;;;;;;11.23;10.13;;;;;;;;;;6244260;22;20646;-83
2023/06/19 08:34:29;;;;;;;12.90;11.07;;;;;;;;;;6306689;22;20021;-82
2023/06/19 08:36:55;;;;;;;12.90;11.68;;;;;;;;;;6308937;22;20007;-84
2023/06/19 08:39:22;;;;;;;12.43;10.90;;;;;;;;;;6307827;22;20007;-84
2023/06/19 08:41:47;;;;;;;10.85;9.95;;;;;;;;;;6308029;22;19999;-84
2023/06/19 08:44:13;;;;;;;10.70;9.70;;;;;;;;;;6308326;22;20008;-85
2023/06/19 08:46:38;;;;;;;12.15;11.10;;;;;;;;;;6308197;22;20410;-84
2023/06/19 08:49:06;;;;;;;13.20;12.00;;;;;;;;;;6308173;22;20079;-84
2023/06/19 08:51:32;;;;;;;12.02;10.35;;;;;;;;;;6308488;22;20065;-84
2023/06/19 08:54:04;;;;;;;12.90;10.82;;;;;;;;;;6308157;22;20414;-87
2023/06/19 08:56:33;;;;;;;11.57;10.45;;;;;;;;;;6308157;22;20010;-86
2023/06/19 08:59:08;;;;;;;12.60;11.50;;;;;;;;;;6307960;22;20011;-87
2023/06/19 09:01:33;;;;;;;12.20;11.10;;;;;;;;;;6306430;22;20003;-86
2023/06/19 09:03:59;;;;;;;13.38;10.75;;;;;;;;;;6308425;22;20010;-86
2023/06/19 09:06:24;;;;;;;12.07;10.88;;;;;;;;;;6308553;22;20365;-85
2023/06/19 09:08:59;;;;;;;11.73;10.63;;;;;;;;;;6308545;22;20408;-85
2023/06/19 09:11:25;;;;;;;13.45;12.15;;;;;;;;;;6308824;22;20056;-87
2023/06/19 09:13:58;;;;;;;12.13;10.63;;;;;;;;;;6310132;22;20003;-87
2023/06/19 09:16:24;;;;;;;13.07;11.75;;;;;;;;;;6310583;22;19999;-89
2023/06/19 09:18:49;;;;;;;13.52;12.32;;;;;;;;;;6309944;22;20363;-86
2023/06/19 09:21:21;;;;;;;13.55;12.32;;;;;;;;;;6311030;22;20026;-85
2023/06/19 09:23:47;;;;;;;13.88;12.27;;;;;;;;;;6310103;22;19999;-86
2023/06/19 09:26:17;;;;;;;13.15;11.95;;;;;;;;;;6310410;22;20061;-85
2023/06/19 09:28:43;;;;;;;14.05;12.75;;;;;;;;;;6310137;22;19999;-85
2023/06/19 09:31:09;;;;;;;14.15;12.85;;;;;;;;;;6310146;22;20006;-85
2023/06/19 09:33:37;;;;;;;14.30;12.80;;;;;;;;;;6310587;22;20018;-88
2023/06/19 09:36:04;;;;;;;15.17;13.60;;;;;;;;;;6310757;22;19999;-87
2023/06/19 09:38:40;;;;;;;13.20;12.00;;;;;;;;;;6310209;22;20002;-86
2023/06/19 09:41:06;;;;;;;15.10;13.55;;;;;;;;;;6310567;22;20098;-85
2023/06/19 09:43:37;;;;;;;14.25;12.85;;;;;;;;;;6310511;22;20000;-84
2023/06/19 09:46:04;;;;;;;13.65;12.23;;;;;;;;;;6310173;22;19999;-84
2023/06/19 09:48:34;;;;;;;13.57;12.38;;;;;;;;;;6310129;22;20011;-84
2023/06/19 09:51:19;;;;;;;13.65;12.20;;;;;;;;;;6310178;22;20007;-85
2023/06/19 09:53:46;;;;;;;14.75;12.20;;;;;;;;;;6311035;22;20063;-87
2023/06/19 09:56:13;;;;;;;15.20;12.13;;;;;;;;;;6311105;22;20000;-86
2023/06/19 09:58:42;;;;;;;15.15;12.52;;;;;;;;;;6311307;22;20004;-89
2023/06/19 10:01:07;;;;;;;12.00;10.90;;;;;;;;;;6310505;22;20006;-82
2023/06/19 10:03:34;;;;;;;12.90;11.60;;;;;;;;;;6309390;22;20326;-82
2023/06/19 10:06:01;;;;;;;15.05;11.88;;;;;;;;;;6309685;22;20027;-82
2023/06/19 10:08:39;;;;;;;12.70;11.48;;;;;;;;;;6309626;22;20014;-83
2023/06/19 10:11:05;;;;;;;13.15;11.73;;;;;;;;;;6309263;22;20418;-82
2023/06/19 10:13:33;;;;;;;14.52;10.95;;;;;;;;;;6309478;22;20040;-83
2023/06/19 10:16:00;;;;;;;12.27;11.00;;;;;;;;;;6309522;22;20049;-81
2023/06/19 10:18:26;;;;;;;13.00;10.75;;;;;;;;;;6309003;22;20430;-81
2023/06/19 10:20:53;;;;;;;12.32;11.23;;;;;;;;;;6309152;22;20003;-82
2023/06/19 10:23:21;;;;;;;11.75;10.55;;;;;;;;;;6308881;22;20003;-81
2023/06/19 10:26:07;;;;;;;12.35;11.15;;;;;;;;;;6309184;22;19999;-80
2023/06/19 10:28:33;;;;;;;12.43;11.32;;;;;;;;;;6308631;22;20038;-82
2023/06/19 10:31:02;;;;;;;12.95;11.20;;;;;;;;;;6308484;22;20356;-82
2023/06/19 10:33:32;;;;;;;12.50;11.30;;;;;;;;;;6308772;22;20012;-83
2023/06/19 10:35:59;;;;;;;11.95;10.82;;;;;;;;;;6309210;22;20433;-83
2023/06/19 10:38:25;;;;;;;12.25;11.05;;;;;;;;;;6308975;22;19999;-81
2023/06/19 10:40:51;;;;;;;11.40;10.35;;;;;;;;;;6308728;22;19999;-82
2023/06/19 10:43:22;;;;;;;12.48;11.20;;;;;;;;;;6309054;22;20048;-81
2023/06/19 10:45:48;;;;;;;11.20;10.02;;;;;;;;;;6308864;22;20444;-83
2023/06/19 10:48:22;;;;;;;12.23;10.50;;;;;;;;;;6308551;22;20000;-82
2023/06/19 10:50:48;;;;;;;11.38;10.27;;;;;;;;;;6308963;22;20007;-83
2023/06/19 10:53:26;;;;;;;11.57;10.18;;;;;;;;;;6308560;22;20031;-85
2023/06/19 10:56:00;;;;;;;12.63;11.32;;;;;;;;;;6308870;22;20003;-82
2023/06/19 10:58:26;;;;;;;14.43;11.18;;;;;;;;;;6308386;22;20029;-84
2023/06/19 11:00:51;;;;;;;12.63;11.40;;;;;;;;;;6308513;22;20007;-83
2023/06/19 11:03:18;;;;;;;13.52;11.70;;;;;;;;;;6308918;22;20003;-82
2023/06/19 11:05:44;;;;;;;14.27;11.70;;;;;;;;;;6308659;22;20372;-83
2023/06/19 11:08:10;;;;;;;12.55;11.23;;;;;;;;;;6308709;22;20023;-82
2023/06/19 11:10:35;;;;;;;13.30;11.52;;;;;;;;;;6308393;22;20422;-82
2023/06/19 11:13:01;;;;;;;13.77;12.55;;;;;;;;;;6308545;22;20300;-82
2023/06/19 11:15:33;;;;;;;13.43;12.07;;;;;;;;;;6308773;22;20331;-82
2023/06/19 11:18:01;;;;;;;14.45;13.15;;;;;;;;;;6308897;22;20035;-82
2023/06/19 11:20:27;;;;;;;15.77;13.75;;;;;;;;;;6308787;22;20007;-82
2023/06/19 11:22:59;;;;;;;12.40;11.20;;;;;;;;;;6308651;22;20003;-82
2023/06/19 11:25:38;;;;;;;14.93;11.57;;;;;;;;;;6308606;22;20369;-82
2023/06/19 11:28:10;;;;;;;13.55;12.15;;;;;;;;;;6307285;22;19995;-83
2023/06/19 11:30:35;;;;;;;13.50;12.13;;;;;;;;;;6308692;22;20011;-87
2023/06/19 11:33:02;;;;;;;16.23;14.68;;;;;;;;;;6308272;22;20599;-82
2023/06/19 11:35:36;;;;;;;13.40;12.10;;;;;;;;;;6308421;22;20368;-81
2023/06/19 11:38:02;;;;;;;13.68;12.38;;;;;;;;;;6308811;22;20429;-80
2023/06/19 11:40:28;;;;;;;14.20;12.80;;;;;;;;;;6308265;22;20004;-82
2023/06/19 11:42:54;;;;;;;15.75;14.15;;;;;;;;;;6308316;22;20027;-81
2023/06/19 11:45:21;;;;;;;15.63;14.07;;;;;;;;;;6308597;22;19996;-82
2023/06/19 16:52:48;;;;;;;9.88;8.95;;;;;;;;;;6290197;22;20097;-81
2023/06/19 16:55:14;;;;;;;11.15;10.10;;;;;;;;;;6307522;22;20011;-86
2023/06/19 16:57:40;;;;;;;10.10;9.10;;;;;;;;;;6307844;22;20006;-83
2023/06/19 17:00:08;;;;;;;9.90;9.00;;;;;;;;;;6307684;22;20053;-86
2023/06/19 17:02:33;;;;;;;10.10;9.10;;;;;;;;;;6307403;22;20471;-81
2023/06/19 17:04:59;;;;;;;9.80;8.90;;;;;;;;;;6307674;22;19999;-85
2023/06/19 17:07:24;;;;;;;9.15;8.35;;;;;;;;;;6307802;22;20052;-85
2023/06/19 17:09:50;;;;;;;9.95;9.05;;;;;;;;;;6307480;22;20002;-82
2023/06/19 17:12:15;;;;;;;9.45;8.55;;;;;;;;;;6281179;22;20078;-94
2023/06/19 17:14:42;;;;;;;9.32;8.50;;;;;;;;;;6309643;22;19999;-93
2023/06/19 17:17:07;;;;;;;8.77;8.05;;;;;;;;;;6309607;22;20368;-86
2023/06/19 17:19:33;;;;;;;9.50;8.60;;;;;;;;;;6308776;22;20003;-84
2023/06/19 17:21:58;;;;;;;9.57;8.40;;;;;;;;;;6311161;22;19999;-95
2023/06/19 17:24:24;;;;;;;9.90;8.98;;;;;;;;;;6315866;22;19979;-85
2023/06/19 17:26:56;;;;;;;9.27;8.40;;;;;;;;;;6327273;22;20330;-89
2023/06/19 17:29:21;;;;;;;9.50;8.60;;;;;;;;;;6325878;22;20082;-87
2023/06/19 17:31:47;;;;;;;11.38;10.20;;;;;;;;;;6326973;22;20006;-83
2023/06/19 17:34:12;;;;;;;10.63;9.65;;;;;;;;;;6327303;22;19995;-85
2023/06/19 17:36:38;;;;;;;9.98;8.98;;;;;;;;;;6322781;22;20070;-89
2023/06/19 17:39:03;;;;;;;9.55;8.75;;;;;;;;;;6322527;22;20422;-85
2023/06/19 17:41:30;;;;;;;9.75;8.75;;;;;;;;;;6321111;22;19983;-86
2023/06/19 17:43:55;;;;;;;10.07;9.18;;;;;;;;;;6320304;22;20051;-85
2023/06/19 17:46:21;;;;;;;10.10;9.18;;;;;;;;;;6315587;22;20003;-96
2023/06/19 17:48:46;;;;;;;9.07;8.27;;;;;;;;;;6321161;22;20027;-84
2023/06/19 17:51:11;;;;;;;9.75;8.88;;;;;;;;;;6314712;22;20014;-85
2023/06/19 17:53:38;;;;;;;9.85;9.05;;;;;;;;;;6310414;22;20033;-93
2023/06/19 17:56:05;;;;;;;9.52;8.70;;;;;;;;;;6310327;22;20053;-84
2023/06/19 17:58:31;;;;;;;9.85;8.95;;;;;;;;;;6310041;22;20422;-83
2023/06/19 18:00:57;;;;;;;9.65;8.85;;;;;;;;;;6310130;22;20006;-93
2023/06/19 18:03:23;;;;;;;10.20;9.20;;;;;;;;;;6310022;22;20070;-86
2023/06/19 18:05:48;;;;;;;9.73;8.80;;;;;;;;;;6289691;22;20035;-85
2023/06/19 18:08:13;;;;;;;9.27;8.40;;;;;;;;;;6320176;22;20031;-95
2023/06/19 18:10:39;;;;;;;10.50;9.50;;;;;;;;;;6320640;22;20039;-86
2023/06/19 18:13:04;;;;;;;9.65;8.85;;;;;;;;;;6313389;22;20006;-88
2023/06/19 18:15:33;;;;;;;9.82;9.02;;;;;;;;;;6320977;22;20319;-86
2023/06/19 18:17:58;;;;;;;9.77;8.97;;;;;;;;;;6316401;22;20049;-96
2023/06/19 18:20:23;;;;;;;9.70;8.90;;;;;;;;;;6311525;22;20038;-92
2023/06/19 18:22:59;;;;;;;9.88;8.95;;;;;;;;;;6322074;22;20019;-86
2023/06/19 18:25:25;;;;;;;9.68;8.88;;;;;;;;;;6289236;22;20016;-88
2023/06/19 18:30:27;;;;;;;10.57;9.57;;;;;;;;;;6324381;22;20016;-85
2023/06/19 18:32:56;;;;;;;9.38;8.45;;;;;;;;;;6317998;22;20007;-86
2023/06/19 18:35:26;;;;;;;9.98;9.07;;;;;;;;;;6321676;22;20053;-85
2023/06/19 18:37:52;;;;;;;10.02;9.13;;;;;;;;;;6318620;22;20003;-85
2023/06/19 18:40:20;;;;;;;10.00;9.13;;;;;;;;;;6324288;22;20023;-85
2023/06/19 18:45:11;;;;;;;9.80;8.98;;;;;;;;;;6352684;22;20424;-86
2023/06/19 18:47:56;;;;;;;9.52;8.63;;;;;;;;;;6336555;22;19999;-86
2023/06/19 18:50:49;;;;;;;9.48;8.57;;;;;;;;;;6360276;22;20010;-93
2023/06/19 18:53:15;;;;;;;9.05;8.27;;;;;;;;;;6319921;22;20330;-87
2023/06/19 18:55:46;;;;;;;10.65;9.57;;;;;;;;;;6351809;22;20022;-87
2023/06/19 18:58:13;;;;;;;10.43;9.52;;;;;;;;;;6354463;22;20033;-89
2023/06/19 19:00:44;;;;;;;10.57;9.55;;;;;;;;;;6355184;22;20028;-88
2023/06/19 19:03:09;;;;;;;10.43;9.27;;;;;;;;;;6348945;22;20003;-86
2023/06/19 19:05:35;;;;;;;10.90;9.75;;;;;;;;;;6349159;22;20086;-95
2023/06/19 19:08:07;;;;;;;11.00;9.98;;;;;;;;;;6347846;22;20006;-94
2023/06/19 19:10:33;;;;;;;10.98;10.00;;;;;;;;;;6353011;22;19999;-91
2023/06/19 19:12:59;;;;;;;10.15;9.15;;;;;;;;;;6316840;22;20009;-88
2023/06/19 19:15:24;;;;;;;10.95;9.95;;;;;;;;;;6318094;22;20022;-85
2023/06/19 19:17:52;;;;;;;10.50;9.43;;;;;;;;;;6343904;22;20029;-95
2023/06/19 19:20:17;;;;;;;10.07;9.13;;;;;;;;;;6346212;22;20013;-86
2023/06/19 19:22:44;;;;;;;10.30;9.40;;;;;;;;;;6344277;22;20003;-96
2023/06/19 19:25:10;;;;;;;10.48;9.57;;;;;;;;;;6340677;22;19998;-87
2023/06/19 19:27:35;;;;;;;10.88;9.77;;;;;;;;;;6341292;22;19998;-92
2023/06/19 19:30:01;;;;;;;10.95;9.80;;;;;;;;;;6341791;22;20009;-93
2023/06/19 19:32:26;;;;;;;10.30;9.20;;;;;;;;;;6341606;22;19999;-94
2023/06/19 19:34:55;;;;;;;10.60;9.70;;;;;;;;;;6344377;22;20006;-94
2023/06/19 19:37:21;;;;;;;10.60;9.68;;;;;;;;;;6341551;22;19999;-94
2023/06/19 19:39:46;;;;;;;10.77;9.77;;;;;;;;;;6346618;22;20034;-96
2023/06/19 19:42:12;;;;;;;10.40;9.40;;;;;;;;;;6349472;22;20048;-96
2023/06/19 19:44:37;;;;;;;10.45;9.55;;;;;;;;;;6345350;22;20007;-91
2023/06/19 19:47:03;;;;;;;11.15;10.20;;;;;;;;;;6342040;22;20422;-96
2023/06/19 19:49:28;;;;;;;11.00;10.02;;;;;;;;;;6339808;22;20311;-93
2023/06/19 19:51:54;;;;;;;10.38;9.48;;;;;;;;;;6340298;22;19999;-96
2023/06/19 19:54:19;;;;;;;10.18;9.38;;;;;;;;;;6340339;22;20444;-86
2023/06/19 19:56:44;;;;;;;10.07;9.18;;;;;;;;;;6339815;22;19999;-96
2023/06/19 19:59:10;;;;;;;10.40;9.50;;;;;;;;;;6339629;22;20093;-85
2023/06/19 20:01:35;;;;;;;10.00;9.25;;;;;;;;;;6340066;22;20300;-89
2023/06/19 20:04:01;;;;;;;10.80;9.90;;;;;;;;;;6340229;22;20010;-84
2023/06/19 20:06:26;;;;;;;11.13;9.65;;;;;;;;;;6340403;22;20003;-86
2023/06/19 20:08:52;;;;;;;11.57;10.43;;;;;;;;;;6339775;22;20003;-86
2023/06/19 20:11:17;;;;;;;12.30;11.07;;;;;;;;;;6339948;22;20060;-88
2023/06/19 20:13:43;;;;;;;12.02;10.93;;;;;;;;;;6339973;22;20322;-94
2023/06/19 20:16:11;;;;;;;11.18;10.13;;;;;;;;;;6340035;22;20051;-83
2023/06/19 20:18:37;;;;;;;11.00;10.10;;;;;;;;;;6341264;22;20079;-84
2023/06/19 20:21:02;;;;;;;11.55;10.35;;;;;;;;;;6339399;22;20006;-79
2023/06/19 20:23:29;;;;;;;10.30;9.40;;;;;;;;;;6339641;22;20060;-89
2023/06/19 20:25:55;;;;;;;11.38;10.15;;;;;;;;;;6340291;22;19998;-92
2023/06/19 20:28:20;;;;;;;10.55;9.75;;;;;;;;;;6340042;22;20009;-83
2023/06/19 20:30:46;;;;;;;11.00;9.90;;;;;;;;;;6339576;22;20433;-84
2023/06/19 20:33:11;;;;;;;11.07;10.07;;;;;;;;;;6339460;22;20003;-84
2023/06/19 20:35:37;;;;;;;10.43;9.43;;;;;;;;;;6339949;22;20083;-84
2023/06/19 20:38:02;;;;;;;11.00;9.65;;;;;;;;;;6340269;22;20029;-93
2023/06/19 20:40:27;;;;;;;11.02;9.30;;;;;;;;;;6339796;22;20006;-92
2023/06/19 20:42:53;;;;;;;10.38;9.48;;;;;;;;;;6339702;22;20002;-88
2023/06/19 20:45:20;;;;;;;10.70;9.80;;;;;;;;;;6340394;22;19999;-86
2023/06/19 20:47:46;;;;;;;10.93;10.02;;;;;;;;;;6339688;22;20003;-88
2023/06/19 20:50:13;;;;;;;11.05;10.05;;;;;;;;;;6340386;22;20025;-88
2023/06/19 20:52:39;;;;;;;10.38;9.30;;;;;;;;;;6340348;22;20026;-86
2023/06/19 20:55:05;;;;;;;10.43;9.55;;;;;;;;;;6340279;22;20006;-85
2023/06/19 20:57:31;;;;;;;9.75;8.95;;;;;;;;;;6339733;22;20003;-82
2023/06/19 20:59:56;;;;;;;11.02;10.02;;;;;;;;;;6339644;22;20042;-83
2023/06/19 21:02:22;;;;;;;11.30;10.20;;;;;;;;;;6339505;22;20056;-90
2023/06/19 21:04:47;;;;;;;10.82;9.82;;;;;;;;;;6340083;22;20002;-83
2023/06/19 21:07:13;;;;;;;10.57;9.68;;;;;;;;;;6340546;22;19999;-91
2023/06/19 21:09:39;;;;;;;11.10;10.18;;;;;;;;;;6341862;22;20003;-83
2023/06/19 21:12:05;;;;;;;11.88;10.65;;;;;;;;;;6342221;22;20013;-82
2023/06/19 21:14:32;;;;;;;11.93;10.68;;;;;;;;;;6341425;22;20456;-85
2023/06/19 21:16:58;;;;;;;11.13;10.07;;;;;;;;;;6342703;22;19999;-85
2023/06/19 21:19:23;;;;;;;10.73;9.90;;;;;;;;;;6341856;22;20065;-84
